Pt. Reyes RCA field Weather observations

Data are for 10 minute period ending at time listed.
 Day   Time   Solar   Ave.   Ave.  Ave.  Vector    Max.   Stn.   Total 
  of    of     Rad.   Air    Rel.  Wind   Wind     Wind   Baro. Precip.
Year   Day            Temp.  Hum.  Speed  Dir.     Gust   Pres.        
2017   (PST)   W/m2    F      %     mph   deg.      mph    mb.    in.  
-----------------------------------------------------------------------
  85   13:30  254.0    54   94.6    19    154.9    25.9   1014.6  0.00  
  85   13:40  247.0    54   95.3    20    155.5    24.6   1014.6  0.00  
  85   13:50  250.0    54   95.5    20    153.6    25.3   1014.2  0.00  
  85   14:00  201.0    54   95.8    18    156.6    25.8   1014.2  0.00  
  85   14:10  216.0    54   95.4    21    161.3    27.0   1014.2  0.00  
  85   14:20  210.0    54   95.6    22    159.9    27.3   1014.2  0.00  
  85   14:30  307.0    54   96.1    20    155.7    26.4   1013.9  0.00  
  85   14:40  160.0    54   96.0    21    155.0    26.0   1013.9  0.00  
  85   14:50  206.0    54   96.5    22    160.0    28.1   1013.9  0.00  
  85   15:00  202.0    54   96.8    20    158.3    25.3   1013.9  0.01  
  85   15:10  140.0    54   97.0    19    156.9    25.8   1013.9  0.00  
  85   15:20   99.0    54   96.9    20    160.0    25.5   1013.5  0.01  
  85   15:30   62.0    54   96.9    20    160.2    25.4   1013.5  0.00  
  85   15:40   72.0    54   97.0    19    162.1    25.6   1013.5  0.03  
  85   15:50   76.0    54   97.1    19    160.7    24.9   1013.5  0.05  
  85   16:00   98.0    54   97.1    20    161.5    25.6   1013.2  0.02  
  85   16:10  120.0    54   97.2    21    164.5    27.0   1013.2  0.00  
  85   16:20  122.0    54   97.2    22    165.8    29.1   1013.2  0.00  
  85   16:30   79.0    54   97.3    22    165.0    28.9   1013.2  0.01  
  85   16:40   68.0    54   97.5    22    167.0    28.9   1013.2  0.00  
  85   16:50   70.0    54   97.7    19    167.7    26.3   1013.2  0.00  
  85   17:00   41.0    54   97.8    19    171.0    25.1   1013.2  0.00  
  85   17:10   38.0    54   97.8    20    173.3    27.5   1012.9  0.01  
  85   17:20   66.0    54   97.9    19    170.4    23.5   1012.9  0.00  
  85   17:30   27.0    54   97.9    20    174.9    26.6   1012.9  0.00  
  85   17:40   25.0    54   97.9    18    180.6    21.9   1013.2  0.01  
  85   17:50   15.0    54   97.9    13    186.0    20.9   1013.2  0.01  
  85   18:00    5.0    54   97.9    14    227.8    26.5   1013.5  0.00  
  85   18:10   10.0    54   97.7    16    296.1    21.9   1013.5  0.01  
  85   18:20    6.0    53   97.7    12    301.1    18.5   1013.5  0.00  
  85   18:30    3.0    53   97.9     9    297.7    11.8   1013.9  0.00  
  85   18:40    2.0    53   97.9    11    287.4    16.1   1013.9  0.00  
  85   18:50    0.0    53   97.7    12    290.6    16.6   1013.9  0.00  
  85   19:00    0.0    53   97.2    12    295.4    15.3   1013.9  0.00  
  85   19:10    0.0    53   96.7    12    292.5    15.9   1014.2  0.00  
  85   19:20    0.0    53   96.4    13    289.9    18.6   1014.2  0.00  
  85   19:30    0.0    54   96.1    14    287.4    19.1   1014.2  0.00  
  85   19:40    0.0    53   95.6    14    295.5    17.6   1014.6  0.00  
  85   19:50    0.0    53   94.5    15    297.9    20.5   1014.6  0.00  
  85   20:00    0.0    53   92.1    14    296.6    20.5   1014.6  0.00  
  85   20:10    0.0    53   91.9    13    291.0    17.0   1014.6  0.00  
  85   20:20    0.0    53   92.0    16    282.2    21.2   1014.9  0.00  
  85   20:30    0.0    53   92.9    14    284.8    17.9   1014.9  0.00  
  85   20:40    0.0    53   92.9    13    286.0    16.4   1015.2  0.00  
  85   20:50    0.0    53   92.6    12    290.7    18.9   1015.2  0.00  
  85   21:00    0.0    53   92.4    13    290.7    17.0   1015.2  0.00  
  85   21:10    0.0    53   91.4    14    291.0    19.1   1015.6  0.00  
  85   21:20    0.0    53   90.9    14    295.3    18.4   1015.6  0.00  
  85   21:30    0.0    53   90.5    17    298.1    23.0   1015.2  0.00  
  85   21:40    0.0    53   91.1    17    299.4    21.5   1015.6  0.00  
  85   21:50    0.0    53   91.4    16    299.1    22.3   1015.6  0.00  
  85   22:00    0.0    53   91.1    18    304.8    25.6   1015.6  0.00  
  85   22:10    0.0    52   91.5    15    306.8    20.7   1015.6  0.00  
  85   22:20    0.0    52   90.3    17    305.6    20.5   1015.2  0.00  
  85   22:30    0.0    52   90.4    15    300.2    23.2   1015.6  0.00  
  85   22:40    0.0    53   89.8    20    299.0    27.5   1015.6  0.00  
  85   22:50    0.0    53   89.2    18    300.7    23.5   1015.6  0.00  
  85   23:00    0.0    53   89.0    18    301.8    23.6   1015.6  0.00  
  85   23:10    0.0    52   88.2    17    301.9    21.7   1015.6  0.00  
  85   23:20    0.0    52   87.8    19    305.7    23.9   1015.6  0.00  
  85   23:30    0.0    52   87.6    18    307.7    22.9   1015.6  0.00  
  85   23:40    0.0    52   87.3    16    308.4    21.5   1015.6  0.00  
  85   23:50    0.0    52   88.5    16    303.9    22.3   1015.6  0.00  
  86    0:00    0.0    52   88.3    17    307.7    22.9   1015.6  0.00  
  86    0:10    0.0    52   88.3    18    305.7    24.1   1015.6  0.00  
  86    0:20    0.0    52   88.3    17    305.8    21.7   1015.9  0.00  
  86    0:30    0.0    52   88.0    17    306.3    21.9   1015.9  0.00  
  86    0:40    0.0    52   87.1    15    307.3    20.0   1015.9  0.00  
  86    0:50    0.0    52   87.7    14    308.9    18.8   1015.9  0.00  
  86    1:00    0.0    52   87.1    14    307.9    19.3   1015.9  0.00  
  86    1:10    0.0    52   87.3    13    309.8    17.8   1016.3  0.00  
  86    1:20    0.0    52   86.9    15    313.4    19.3   1016.3  0.00  
  86    1:30    0.0    52   86.3    15    309.5    19.4   1016.3  0.00  
  86    1:40    0.0    52   86.8    14    310.9    19.1   1016.3  0.00  
  86    1:50    0.0    52   87.1    14    312.6    18.9   1016.3  0.00  
  86    2:00    0.0    52   86.5    14    316.9    19.1   1016.3  0.00  
  86    2:10    0.0    52   86.6    14    322.2    18.4   1016.3  0.00  
  86    2:20    0.0    52   86.4    15    318.9    19.7   1016.3  0.00  
  86    2:30    0.0    52   86.3    15    315.3    18.7   1016.3  0.00  
  86    2:40    0.0    52   87.4    13    316.9    17.7   1016.6  0.00  
  86    2:50    0.0    52   88.0    14    318.8    18.1   1016.6  0.00  
  86    3:00    0.0    52   87.5    16    313.9    21.3   1016.9  0.00  
  86    3:10    0.0    52   87.3    16    315.8    21.5   1016.9  0.00  
  86    3:20    0.0    52   87.1    16    315.7    21.1   1016.9  0.00  
  86    3:30    0.0    52   86.8    16    314.5    21.6   1017.3  0.00  
  86    3:40    0.0    52   88.0    15    321.3    19.6   1017.3  0.00  
  86    3:50    0.0    52   88.2    13    327.4    16.8   1017.3  0.00  
  86    4:00    0.0    51   87.8    14    327.9    20.3   1016.9  0.00  
  86    4:10    0.0    51   87.2    15    324.5    18.8   1016.9  0.00  
  86    4:20    0.0    51   88.2    13    319.6    15.7   1017.3  0.00  
  86    4:30    0.0    52   88.3    14    319.3    20.2   1017.3  0.00  
  86    4:40    0.0    52   87.9    16    323.7    19.7   1017.3  0.00  
  86    4:50    0.0    51   88.4    15    320.1    19.0   1017.6  0.00  
  86    5:00    0.0    51   87.2    15    320.1    19.6   1017.6  0.00  
  86    5:10    0.0    51   88.2    13    322.2    18.3   1017.6  0.00  
  86    5:20    0.0    52   87.5    16    323.4    21.0   1018.0  0.00  
  86    5:30    0.0    51   85.7    16    319.7    20.8   1018.0  0.00  
  86    5:40    0.0    51   86.4    16    320.0    21.9   1018.0  0.00  
  86    5:50    0.0    51   85.2    17    318.6    21.5   1018.0  0.00  
  86    6:00    1.0    51   85.1    16    317.5    22.1   1018.3  0.00  
  86    6:10    6.0    51   83.8    17    321.9    22.1   1018.3  0.00  
  86    6:20   15.0    51   83.2    16    323.7    21.3   1018.3  0.00  
  86    6:30   29.0    51   84.0    15    320.1    19.4   1018.6  0.00  
  86    6:40   50.0    51   84.7    14    318.4    16.9   1018.6  0.00  
  86    6:50   79.0    52   83.8    14    320.0    17.1   1019.0  0.00  
  86    7:00  110.0    52   83.1    12    321.3    16.4   1019.0  0.00  
  86    7:10  140.0    52   79.3    13    316.5    16.9   1019.0  0.00  
  86    7:20  169.0    52   78.6    15    316.3    19.2   1019.3  0.00  
  86    7:30  199.0    53   77.3    16    320.3    19.4   1019.3  0.00  
  86    7:40  232.0    53   79.6    15    321.0    20.0   1019.6  0.00  
  86    7:50  251.0    53   83.3    14    312.6    18.6   1019.6  0.00  
  86    8:00  297.0    53   84.2    15    311.0    18.6   1019.6  0.00  
  86    8:10  330.0    53   83.3    15    311.9    21.4   1019.6  0.00  
  86    8:20  364.0    53   81.2    14    318.2    17.7   1019.6  0.00  
  86    8:30  394.0    54   80.8    12    317.6    15.9   1019.6  0.00  
  86    8:40  427.0    54   78.2    12    318.9    14.8   1019.6  0.00  
  86    8:50  455.0    54   77.7    13    325.6    16.8   1020.0  0.00  
  86    9:00  484.0    54   78.4    12    317.1    14.8   1020.0  0.00  
  86    9:10  511.0    54   78.1    14    312.7    16.4   1020.0  0.00  
  86    9:20  540.0    54   78.1    14    308.9    16.4   1020.0  0.00  
  86    9:30  567.0    55   77.9    14    309.1    17.5   1020.0  0.00  
  86    9:40  588.0    55   77.7    15    307.1    18.7   1020.3  0.00  
  86    9:50  616.0    55   76.8    16    306.2    19.6   1020.3  0.00  
  86   10:00  629.0    56   76.2    17    306.7    21.0   1020.3  0.00  
  86   10:10  646.0    55   74.9    20    308.4    24.0   1020.3  0.00  
  86   10:20  663.0    55   74.1    20    312.8    24.5   1020.7  0.00  
  86   10:30  680.0    55   73.9    20    311.8    24.0   1020.7  0.00  
  86   10:40  702.0    56   74.3    19    313.6    24.5   1020.7  0.00  
  86   10:50  711.0    56   73.7    20    307.2    25.9   1020.7  0.00  
  86   11:00  725.0    56   72.6    20    307.6    25.1   1020.7  0.00  
  86   11:10  744.0    56   73.3    20    309.1    25.4   1020.7  0.00  
  86   11:20  754.0    56   74.8    20    305.8    25.2   1020.7  0.00  
  86   11:30  742.0    56   75.3    21    306.2    25.5   1020.7  0.00  
  86   11:40  775.0    56   74.9    22    306.3    27.8   1020.7  0.00  
  86   11:50  779.0    56   74.5    19    306.8    24.3   1020.7  0.00  
  86   12:00  764.0    56   73.6    21    307.8    26.3   1021.0  0.00  
  86   12:10  768.0    56   76.4    22    305.5    28.2   1021.0  0.00  
  86   12:20  783.0    56   76.8    20    305.4    24.5   1021.0  0.00  
  86   12:30  783.0    56   75.1    22    307.0    28.5   1021.0  0.00  
  86   12:40  779.0    56   75.5    22    306.0    29.4   1021.0  0.00  
  86   12:50  775.0    56   74.3    25    306.0    33.0   1021.0  0.00  
  86   13:00  769.0    56   74.6    25    306.7    31.2   1021.0  0.00  
  86   13:10  765.0    56   73.9    26    304.9    33.5   1021.0  0.00  
  86   13:20  757.0    56   75.5    24    304.9    31.0   1021.0  0.00  

Return to Pt. Reyes graphs page.


Western Regional Climate Center,wrcc@dri.edu